Hardwood, Michigan
Current Conditions -  °F | °C
As of 12:55 AM on Thursday 18 Dec 2014 (Local Time) from KESC Reporting Station
Overcast Overcast  
Wind Chill: 17°   Ceiling: 1900
Heat Index: 27°   Visibility: 10mi
Dew Point: 19°   Wind: 9mph
Humidity: 74%   Direction: 350°N
Pressure: 30.2"   Gusts: NA
Location:  45.682°N, 87.2748°W
Report Text: KESC 180555Z AUTO 35008KT 10SM OVC019 M03/M07 A3020 RMK AO1 11020 21030 410201040 52010
Loading
Personal Weather Stations






























Interactive Weather Map New forecast layout! Learn more

10-Day Weather Forecast

Advertisements
Track Severe Weather on mobile